Time;durP1;ratioP1;P1;durP2;ratioP2;P2;SDS_P1;SDS_P2;PMS_P1;PMS_P2;Temp;Humidity;BMP_temperature;BMP_pressure;BME280_temperature;BME280_humidity;BME280_pressure;Samples;Min_cycle;Max_cycle;Signal;HPM_P1;HPM_P2
2023/07/09 00:01:17;;;;;;;9.48;5.50;;;;;;;17.63;100.00;94408.19;5029593;28;20085;-60
2023/07/09 00:03:54;;;;;;;8.43;5.47;;;;;;;17.62;100.00;94414.97;5029901;28;20550;-60
2023/07/09 00:06:20;;;;;;;8.10;5.03;;;;;;;17.56;100.00;94414.75;5049509;28;20041;-60
2023/07/09 00:08:49;;;;;;;13.68;9.15;;;;;;;17.52;100.00;94416.09;5048857;28;20045;-63
2023/07/09 00:11:16;;;;;;;10.23;6.93;;;;;;;17.42;100.00;94425.56;5028280;28;20050;-62
2023/07/09 00:13:43;;;;;;;10.88;6.68;;;;;;;17.35;100.00;94429.38;5041287;28;20055;-60
2023/07/09 00:16:21;;;;;;;9.57;5.95;;;;;;;17.33;100.00;94420.72;5049475;28;20059;-59
2023/07/09 00:18:48;;;;;;;8.37;5.50;;;;;;;17.27;100.00;94423.28;5048666;28;20041;-60
2023/07/09 00:21:20;;;;;;;10.32;5.72;;;;;;;17.17;100.00;94416.09;5031521;28;20060;-60
2023/07/09 00:23:49;;;;;;;9.77;5.57;;;;;;;17.19;100.00;94419.19;5048687;28;20467;-59
2023/07/09 00:26:17;;;;;;;8.65;5.88;;;;;;;17.20;100.00;94417.94;5049086;28;20063;-60
2023/07/09 00:28:44;;;;;;;8.80;5.82;;;;;;;17.20;100.00;94411.63;5048283;28;20440;-63
2023/07/09 00:31:16;;;;;;;10.73;6.20;;;;;;;16.84;100.00;94415.53;5048864;28;20094;-59
2023/07/09 00:33:43;;;;;;;9.05;6.07;;;;;;;16.72;100.00;94425.38;5027200;28;20449;-60
2023/07/09 00:36:16;;;;;;;9.88;5.65;;;;;;;16.87;100.00;94425.75;5044001;28;20049;-62
2023/07/09 00:38:47;;;;;;;8.88;5.85;;;;;;;16.88;100.00;94427.28;5035684;28;20049;-60
2023/07/09 00:41:20;;;;;;;9.15;5.82;;;;;;;16.93;100.00;94421.97;5049156;28;20047;-59
2023/07/09 00:43:48;;;;;;;19.93;13.43;;;;;;;16.92;100.00;94422.41;5048552;28;20044;-64
2023/07/09 00:46:27;;;;;;;14.85;9.93;;;;;;;16.92;100.00;94425.97;5048892;28;20039;-62
2023/07/09 00:49:04;;;;;;;9.98;6.03;;;;;;;16.66;100.00;94419.63;5036163;28;20043;-60
2023/07/09 00:51:36;;;;;;;9.27;6.00;;;;;;;16.51;100.00;94424.06;5048025;28;20613;-63
2023/07/09 00:54:22;;;;;;;9.55;6.05;;;;;;;16.51;100.00;94433.13;5047778;28;21550;-60
2023/07/09 00:56:52;;;;;;;10.50;6.33;;;;;;;16.51;100.00;94424.81;5047879;28;20158;-60
2023/07/09 00:59:23;;;;;;;8.95;5.80;;;;;;;16.51;100.00;94429.59;5048634;28;20486;-59
2023/07/09 01:01:52;;;;;;;9.80;6.00;;;;;;;16.50;100.00;94428.03;5031251;28;20448;-62
2023/07/09 01:04:21;;;;;;;8.68;5.53;;;;;;;16.52;100.00;94429.16;5030973;28;20441;-63
2023/07/09 01:06:51;;;;;;;10.48;5.70;;;;;;;16.54;100.00;94428.69;5027495;28;20037;-60
2023/07/09 01:09:18;;;;;;;9.00;5.57;;;;;;;16.56;100.00;94434.59;5022872;28;20683;-61
2023/07/09 01:11:45;;;;;;;9.05;5.65;;;;;;;16.43;100.00;94433.78;5048486;28;20460;-60
2023/07/09 01:14:16;;;;;;;9.20;5.70;;;;;;;16.22;100.00;94433.19;5048928;28;20113;-59
2023/07/09 01:16:48;;;;;;;9.07;5.72;;;;;;;16.23;100.00;94437.50;5039800;28;20053;-62
2023/07/09 01:19:16;;;;;;;8.57;6.00;;;;;;;16.25;100.00;94431.53;5047397;28;20452;-63
2023/07/09 01:21:43;;;;;;;8.73;5.73;;;;;;;16.28;100.00;94430.66;5048237;28;20079;-60
2023/07/09 01:24:35;;;;;;;10.18;6.53;;;;;;;16.19;100.00;94428.53;5027726;28;20471;-63
2023/07/09 01:27:03;;;;;;;11.35;6.60;;;;;;;16.22;100.00;94435.16;5037314;28;20857;-59
2023/07/09 01:29:33;;;;;;;9.05;6.18;;;;;;;16.18;100.00;94432.53;5048457;28;20486;-59
2023/07/09 01:31:59;;;;;;;9.60;5.97;;;;;;;16.18;100.00;94438.84;5048284;28;20048;-59
2023/07/09 01:34:26;;;;;;;9.60;6.10;;;;;;;16.19;100.00;94442.38;5048545;28;20474;-60
2023/07/09 01:36:53;;;;;;;9.23;6.22;;;;;;;16.21;100.00;94439.94;5031423;28;20049;-60
2023/07/09 01:39:20;;;;;;;10.00;6.35;;;;;;;16.24;100.00;94443.81;5048549;28;20410;-60
2023/07/09 01:41:47;;;;;;;9.98;5.97;;;;;;;16.18;100.00;94446.38;5048068;28;20045;-63
2023/07/09 01:44:14;;;;;;;10.68;6.07;;;;;;;16.16;100.00;94438.50;5030572;28;20045;-60
2023/07/09 01:46:42;;;;;;;8.77;5.90;;;;;;;16.09;100.00;94427.63;5047681;28;20044;-59
2023/07/09 01:49:10;;;;;;;8.57;6.07;;;;;;;16.11;100.00;94427.19;5048422;28;20053;-60
2023/07/09 01:51:38;;;;;;;8.77;6.15;;;;;;;16.08;100.00;94428.06;5047906;28;20049;-59
2023/07/09 01:54:06;;;;;;;9.85;6.63;;;;;;;16.06;100.00;94434.03;5027137;28;20035;-59
2023/07/09 01:56:34;;;;;;;27.17;18.33;;;;;;;16.03;100.00;94434.13;5044077;28;20037;-60
2023/07/09 01:59:01;;;;;;;11.70;7.27;;;;;;;16.05;100.00;94435.25;5027083;28;20045;-60
2023/07/09 02:01:29;;;;;;;12.55;7.90;;;;;;;16.01;100.00;94434.56;5020959;28;20049;-60
2023/07/09 02:03:56;;;;;;;12.00;7.65;;;;;;;16.01;100.00;94431.81;5016920;28;20041;-63
2023/07/09 02:06:24;;;;;;;10.48;6.80;;;;;;;15.93;100.00;94434.00;5034756;28;20044;-60
2023/07/09 02:08:51;;;;;;;10.68;6.47;;;;;;;15.71;100.00;94435.75;5051866;28;20476;-61
2023/07/09 02:11:18;;;;;;;10.17;6.70;;;;;;;15.75;100.00;94439.22;5052299;28;20059;-60
2023/07/09 02:13:44;;;;;;;10.65;6.95;;;;;;;15.81;100.00;94431.94;5051664;28;20044;-60
2023/07/09 02:16:11;;;;;;;9.85;6.60;;;;;;;15.81;100.00;94439.47;5034282;28;20535;-59
2023/07/09 02:18:38;;;;;;;11.35;6.93;;;;;;;15.79;100.00;94442.69;5051408;28;20056;-60
2023/07/09 02:21:04;;;;;;;11.52;7.13;;;;;;;15.75;100.00;94442.81;5052046;28;20064;-60
2023/07/09 02:23:31;;;;;;;11.03;6.93;;;;;;;15.71;100.00;94436.53;5052064;28;20055;-62
2023/07/09 02:25:58;;;;;;;9.77;6.60;;;;;;;15.69;100.00;94447.25;5051698;28;20053;-59
2023/07/09 02:28:24;;;;;;;9.13;6.35;;;;;;;15.70;100.00;94442.53;5034213;28;20063;-60
2023/07/09 02:30:52;;;;;;;9.95;6.38;;;;;;;15.68;100.00;94448.47;5051179;28;20421;-60
2023/07/09 02:33:20;;;;;;;9.68;6.55;;;;;;;15.65;100.00;94446.56;5033803;28;20462;-60
2023/07/09 02:35:47;;;;;;;10.27;6.40;;;;;;;15.56;100.00;94452.72;5051393;28;20481;-60
2023/07/09 02:38:14;;;;;;;10.63;6.70;;;;;;;15.32;100.00;94454.94;5051570;28;20045;-63
2023/07/09 02:40:40;;;;;;;10.70;6.97;;;;;;;15.31;100.00;94445.09;5051489;28;20120;-61
2023/07/09 02:43:07;;;;;;;9.85;6.50;;;;;;;15.30;100.00;94456.56;5051697;28;20037;-60
2023/07/09 02:45:34;;;;;;;10.77;6.78;;;;;;;15.34;100.00;94455.25;5051594;28;20547;-60
2023/07/09 02:48:00;;;;;;;9.73;6.50;;;;;;;15.37;100.00;94459.94;5045570;28;20052;-63
2023/07/09 02:50:27;;;;;;;10.50;6.93;;;;;;;15.40;100.00;94458.28;5043834;28;20048;-60
2023/07/09 02:52:54;;;;;;;11.13;6.53;;;;;;;15.42;100.00;94457.88;5051106;28;20040;-59
2023/07/09 02:55:21;;;;;;;10.25;6.32;;;;;;;15.42;100.00;94463.41;5051572;28;20045;-59
2023/07/09 02:57:47;;;;;;;9.93;6.65;;;;;;;15.44;100.00;94469.28;5013539;28;20372;-60
2023/07/09 03:00:14;;;;;;;19.07;12.57;;;;;;;15.42;100.00;94468.94;5021059;28;20064;-60
2023/07/09 03:02:41;;;;;;;11.48;7.63;;;;;;;15.38;100.00;94463.47;5048400;28;20453;-61
2023/07/09 03:05:10;;;;;;;11.85;7.35;;;;;;;15.40;100.00;94461.06;5051173;28;20041;-61
2023/07/09 03:07:37;;;;;;;10.75;6.57;;;;;;;15.36;100.00;94460.38;5051305;28;20397;-59
2023/07/09 03:10:04;;;;;;;9.98;6.60;;;;;;;15.37;100.00;94468.25;5050319;28;20446;-63
2023/07/09 03:12:30;;;;;;;10.20;6.20;;;;;;;15.37;100.00;94454.41;5033519;28;20047;-59
2023/07/09 03:14:57;;;;;;;9.48;6.35;;;;;;;15.36;100.00;94458.38;5050313;28;20065;-60
2023/07/09 03:17:24;;;;;;;10.80;6.65;;;;;;;15.30;100.00;94459.34;5051005;28;20063;-63
2023/07/09 03:19:50;;;;;;;11.43;6.82;;;;;;;15.27;100.00;94469.28;5050528;28;20045;-60
2023/07/09 03:22:17;;;;;;;9.32;6.70;;;;;;;15.20;100.00;94474.97;5049779;28;20094;-62
2023/07/09 03:24:44;;;;;;;9.83;6.47;;;;;;;15.12;100.00;94473.59;5032583;28;20039;-59
2023/07/09 03:27:11;;;;;;;10.02;6.70;;;;;;;15.08;100.00;94475.66;5041391;28;20127;-60
2023/07/09 03:29:37;;;;;;;11.18;6.63;;;;;;;15.07;100.00;94474.91;5050177;28;20116;-58
2023/07/09 03:32:05;;;;;;;9.57;6.55;;;;;;;15.09;100.00;94472.47;5050716;28;20036;-60
2023/07/09 03:34:31;;;;;;;11.38;6.38;;;;;;;15.09;100.00;94472.47;5050837;28;20041;-59
2023/07/09 03:36:58;;;;;;;10.53;6.43;;;;;;;15.12;100.00;94473.59;5032697;28;20037;-62
2023/07/09 03:39:25;;;;;;;10.90;6.55;;;;;;;15.06;100.00;94478.84;5045810;28;20080;-59
2023/07/09 03:41:51;;;;;;;10.40;6.50;;;;;;;14.99;100.00;94479.03;5050045;28;20045;-60
2023/07/09 03:44:18;;;;;;;11.45;6.80;;;;;;;15.06;100.00;94476.09;5050359;28;20089;-59
2023/07/09 03:46:45;;;;;;;12.63;6.53;;;;;;;15.06;100.00;94478.84;5042707;28;20037;-62
2023/07/09 03:49:12;;;;;;;8.90;6.17;;;;;;;15.13;100.00;94480.66;5044398;28;20041;-60
2023/07/09 03:51:39;;;;;;;9.70;6.32;;;;;;;15.20;100.00;94483.28;5049882;28;20045;-59
2023/07/09 03:54:05;;;;;;;10.30;6.25;;;;;;;15.27;100.00;94485.06;5050280;28;20051;-59
2023/07/09 03:56:32;;;;;;;10.63;6.53;;;;;;;15.22;100.00;94485.63;5050114;28;20064;-60
2023/07/09 03:58:59;;;;;;;10.25;6.50;;;;;;;14.94;100.00;94480.31;5049717;28;20039;-63
2023/07/09 04:01:26;;;;;;;10.07;6.30;;;;;;;15.07;100.00;94494.25;5050274;28;20071;-61
2023/07/09 04:03:52;;;;;;;9.00;6.40;;;;;;;15.09;100.00;94491.84;5049874;28;20045;-59
2023/07/09 04:06:19;;;;;;;8.85;6.03;;;;;;;15.22;100.00;94488.38;5049986;28;20037;-59
2023/07/09 04:08:46;;;;;;;12.50;6.97;;;;;;;15.25;100.00;94490.25;5049633;28;20403;-61
2023/07/09 04:11:12;;;;;;;10.13;6.95;;;;;;;15.22;100.00;94491.13;5050103;28;20051;-60
2023/07/09 04:13:39;;;;;;;9.70;6.30;;;;;;;15.26;100.00;94495.38;5028440;28;20042;-60
2023/07/09 04:16:06;;;;;;;10.93;6.70;;;;;;;15.36;100.00;94497.09;5041647;28;20433;-62
2023/07/09 04:18:35;;;;;;;9.75;6.68;;;;;;;15.27;100.00;94496.13;5049728;28;20084;-58
2023/07/09 04:21:02;;;;;;;9.60;6.47;;;;;;;15.01;100.00;94498.72;5049015;28;20052;-58
2023/07/09 04:23:29;;;;;;;10.65;6.60;;;;;;;15.14;100.00;94501.59;5040676;28;20045;-58
2023/07/09 04:25:55;;;;;;;9.37;6.43;;;;;;;15.28;100.00;94497.72;5029856;28;20037;-59
2023/07/09 04:28:22;;;;;;;10.02;6.40;;;;;;;15.35;100.00;94492.00;5049496;28;20431;-61
2023/07/09 04:30:51;;;;;;;10.70;7.15;;;;;;;15.47;100.00;94488.53;5049424;28;20059;-59
2023/07/09 04:33:19;;;;;;;10.10;6.88;;;;;;;15.65;100.00;94490.06;5049746;28;20413;-59
2023/07/09 04:35:47;;;;;;;10.00;6.50;;;;;;;15.75;100.00;94483.50;5048960;28;20053;-59
2023/07/09 04:38:15;;;;;;;9.97;6.60;;;;;;;15.81;100.00;94486.53;5049639;28;20041;-59
2023/07/09 04:40:41;;;;;;;9.88;6.65;;;;;;;15.94;100.00;94490.16;5048976;28;20416;-61
2023/07/09 04:43:08;;;;;;;10.40;6.78;;;;;;;16.10;100.00;94483.78;5028299;28;20037;-59
2023/07/09 04:45:35;;;;;;;9.55;6.50;;;;;;;16.18;100.00;94487.91;5042214;28;20045;-59
2023/07/09 04:48:02;;;;;;;10.23;6.05;;;;;;;16.20;100.00;94482.72;5048391;28;20045;-62
2023/07/09 04:50:28;;;;;;;9.77;6.73;;;;;;;16.10;100.00;94481.78;5049286;28;20045;-60
2023/07/09 04:52:55;;;;;;;9.45;6.63;;;;;;;16.15;100.00;94486.00;5030377;28;20063;-59
2023/07/09 04:55:22;;;;;;;8.48;6.13;;;;;;;16.21;100.00;94486.25;5038319;28;20120;-59
2023/07/09 04:57:49;;;;;;;10.57;6.20;;;;;;;16.31;100.00;94480.41;5045364;28;20048;-59
2023/07/09 05:00:16;;;;;;;11.77;6.65;;;;;;;16.49;100.00;94488.19;5048937;28;20135;-59
2023/07/09 05:02:42;;;;;;;10.10;6.63;;;;;;;16.54;100.00;94486.88;5048689;28;20444;-61
2023/07/09 05:05:10;;;;;;;9.15;6.45;;;;;;;16.62;100.00;94484.69;5049020;28;20047;-59
2023/07/09 05:07:38;;;;;;;10.13;6.28;;;;;;;16.77;100.00;94485.81;5048928;28;20037;-63
2023/07/09 05:10:06;;;;;;;10.68;6.60;;;;;;;16.74;100.00;94481.94;5030509;28;20152;-62
2023/07/09 05:12:33;;;;;;;10.55;6.70;;;;;;;16.70;100.00;94477.69;5048952;28;20366;-58
2023/07/09 05:15:00;;;;;;;9.50;6.53;;;;;;;16.77;100.00;94478.28;5048356;28;20037;-59
2023/07/09 05:17:26;;;;;;;10.73;6.53;;;;;;;16.61;100.00;94477.59;5048946;28;20448;-59
2023/07/09 05:19:54;;;;;;;9.93;6.90;;;;;;;16.76;100.00;94482.28;5048336;28;20045;-61
2023/07/09 05:22:20;;;;;;;11.05;6.50;;;;;;;16.97;100.00;94482.88;5048865;28;20505;-58
2023/07/09 05:24:47;;;;;;;11.50;6.60;;;;;;;17.38;100.00;94483.94;5048247;28;20449;-59
2023/07/09 05:27:14;;;;;;;9.87;6.47;;;;;;;18.64;100.00;94472.06;5049038;28;20524;-59
2023/07/09 05:29:40;;;;;;;10.68;6.28;;;;;;;21.19;100.00;94472.50;5035683;28;20500;-59
2023/07/09 05:32:07;;;;;;;10.07;6.45;;;;;;;22.46;99.56;94457.44;5029835;28;20037;-62
2023/07/09 05:34:34;;;;;;;9.75;6.43;;;;;;;22.96;94.18;94458.78;5036197;28;20049;-60
2023/07/09 05:37:00;;;;;;;9.32;6.22;;;;;;;24.62;85.04;94462.09;5047903;28;20068;-63
2023/07/09 05:39:27;;;;;;;9.03;6.23;;;;;;;26.19;76.99;94456.88;5048303;28;20102;-60
2023/07/09 05:41:54;;;;;;;7.85;5.90;;;;;;;27.28;66.93;94453.78;5047900;28;20040;-60
2023/07/09 05:44:20;;;;;;;9.63;5.95;;;;;;;27.21;65.12;94451.47;5048411;28;20056;-60
2023/07/09 05:46:47;;;;;;;7.25;5.20;;;;;;;27.37;64.32;94447.91;5047504;28;20041;-64
2023/07/09 05:49:14;;;;;;;7.28;5.55;;;;;;;26.28;67.23;94453.84;5048576;28;20106;-61
2023/07/09 05:51:42;;;;;;;7.47;5.60;;;;;;;26.63;65.74;94452.69;5040648;28;20057;-60
2023/07/09 05:54:08;;;;;;;7.82;5.45;;;;;;;27.61;63.32;94449.41;5028830;28;20041;-60
2023/07/09 05:56:35;;;;;;;7.85;5.50;;;;;;;27.93;60.54;94449.09;5037388;28;20091;-60
2023/07/09 05:59:02;;;;;;;7.90;5.30;;;;;;;30.39;52.85;94456.31;5027272;28;20453;-60
2023/07/09 06:01:29;;;;;;;7.13;5.57;;;;;;;31.94;45.81;94446.47;5048307;28;20033;-64
2023/07/09 06:03:56;;;;;;;6.10;5.00;;;;;;;32.26;43.43;94442.78;5047952;28;20075;-61
2023/07/09 06:06:23;;;;;;;7.45;5.05;;;;;;;31.99;43.27;94453.34;5048264;28;20041;-61
2023/07/09 06:08:50;;;;;;;6.75;5.10;;;;;;;32.23;42.72;94447.47;5047892;28;20047;-60
2023/07/09 06:11:17;;;;;;;6.85;5.15;;;;;;;31.44;44.41;94448.09;5048141;28;20094;-61
2023/07/09 06:13:47;;;;;;;7.35;5.18;;;;;;;31.45;43.76;94452.47;5047696;28;20060;-61
2023/07/09 06:16:15;;;;;;;7.33;5.33;;;;;;;31.24;44.97;94455.88;5048013;28;20055;-61
2023/07/09 06:18:42;;;;;;;6.63;5.10;;;;;;;30.77;45.41;94456.31;5026649;28;20053;-61
2023/07/09 06:21:11;;;;;;;7.70;4.93;;;;;;;31.85;43.81;94461.06;5045734;28;20358;-61
2023/07/09 06:23:38;;;;;;;8.05;5.10;;;;;;;32.23;41.86;94455.22;5047634;28;20071;-65
2023/07/09 06:26:05;;;;;;;7.85;5.25;;;;;;;32.97;39.65;94455.22;5043086;28;20049;-61
2023/07/09 06:28:32;;;;;;;6.20;5.00;;;;;;;33.64;39.23;94457.81;5048119;28;20049;-61
2023/07/09 06:30:59;;;;;;;8.45;4.80;;;;;;;34.66;36.88;94449.41;5047418;28;20087;-65
2023/07/09 06:33:26;;;;;;;7.63;4.80;;;;;;;34.29;36.70;94445.75;5048416;28;20044;-61
2023/07/09 06:35:56;;;;;;;6.65;4.53;;;;;;;34.86;35.85;94445.66;5047267;28;20041;-60
2023/07/09 06:38:23;;;;;;;6.78;5.20;;;;;;;33.26;37.66;94452.50;5048132;28;20049;-61
2023/07/09 06:40:50;;;;;;;7.60;5.00;;;;;;;34.11;36.82;94445.44;5047134;28;20040;-60
2023/07/09 06:43:17;;;;;;;7.15;5.10;;;;;;;33.47;37.89;94446.84;5036560;28;20453;-61
2023/07/09 06:45:51;;;;;;;6.38;4.65;;;;;;;33.88;38.33;94448.13;5040583;28;20486;-63
2023/07/09 06:48:18;;;;;;;7.18;5.40;;;;;;;33.70;38.67;94449.88;5047723;28;20402;-63
2023/07/09 06:50:44;;;;;;;7.72;5.10;;;;;;;32.76;39.66;94454.41;5049449;28;20067;-61
2023/07/09 06:53:12;;;;;;;6.77;4.90;;;;;;;33.92;38.59;94457.06;5051176;28;20045;-61
2023/07/09 06:55:39;;;;;;;7.05;4.95;;;;;;;33.35;38.43;94457.72;5051006;28;20100;-61
2023/07/09 06:58:06;;;;;;;7.57;4.90;;;;;;;33.83;38.04;94457.59;5033573;28;20510;-61
2023/07/09 07:00:37;;;;;;;8.18;4.90;;;;;;;35.90;35.07;94446.25;5051241;28;20051;-65
2023/07/09 07:03:05;;;;;;;6.28;4.75;;;;;;;36.08;33.77;94452.91;5050378;28;20600;-62
2023/07/09 07:05:32;;;;;;;6.50;4.90;;;;;;;35.36;34.68;94449.06;5051202;28;20057;-62
2023/07/09 07:08:00;;;;;;;7.78;4.90;;;;;;;36.26;33.47;94453.84;5039618;28;20088;-64
2023/07/09 07:10:27;;;;;;;8.98;4.57;;;;;;;37.16;32.38;94439.03;5049648;28;20051;-63
2023/07/09 07:12:54;;;;;;;8.38;4.80;;;;;;;36.81;32.33;94454.47;5050848;28;20482;-65
2023/07/09 07:15:22;;;;;;;7.97;4.93;;;;;;;37.17;31.82;94448.41;5050920;28;20033;-61
2023/07/09 07:17:48;;;;;;;7.80;5.00;;;;;;;35.96;33.09;94448.88;5050524;28;20055;-61
2023/07/09 07:20:16;;;;;;;6.30;4.75;;;;;;;36.37;33.13;94450.56;5040093;28;20041;-61
2023/07/09 07:22:43;;;;;;;7.63;4.60;;;;;;;36.58;32.83;94443.84;5050286;28;20052;-62
2023/07/09 07:25:11;;;;;;;6.75;4.97;;;;;;;37.58;30.97;94434.75;5039196;28;20512;-61
2023/07/09 07:27:38;;;;;;;6.63;4.53;;;;;;;37.61;30.34;94430.78;5049668;28;20060;-61
2023/07/09 07:30:08;;;;;;;6.93;4.60;;;;;;;37.45;30.80;94435.81;5049965;28;21779;-62
2023/07/09 07:32:38;;;;;;;5.85;4.40;;;;;;;39.64;28.42;94430.19;5050536;28;20424;-61
2023/07/09 07:35:05;;;;;;;7.43;4.38;;;;;;;40.48;26.74;94436.63;5049896;28;20037;-61
2023/07/09 07:37:32;;;;;;;5.90;4.10;;;;;;;41.32;25.93;94439.19;5050516;28;20071;-61
2023/07/09 07:39:59;;;;;;;5.40;4.00;;;;;;;41.87;24.90;94430.81;5049980;28;20051;-65
2023/07/09 07:42:26;;;;;;;9.20;4.10;;;;;;;40.44;25.89;94433.44;5038913;28;20041;-62
2023/07/09 07:44:53;;;;;;;7.82;4.30;;;;;;;40.97;24.65;94421.50;5030128;28;20057;-61
2023/07/09 07:47:20;;;;;;;6.18;4.03;;;;;;;38.98;26.83;94432.09;5047784;28;20032;-62
2023/07/09 07:49:47;;;;;;;6.43;3.95;;;;;;;39.74;25.78;94416.63;5049864;28;20387;-63
2023/07/09 07:52:14;;;;;;;6.80;4.13;;;;;;;37.68;26.82;94429.19;5050566;28;20482;-61
2023/07/09 07:54:41;;;;;;;7.10;3.90;;;;;;;39.89;24.97;94421.38;5028652;28;20052;-61
2023/07/09 07:57:09;;;;;;;7.50;3.85;;;;;;;38.56;25.43;94420.13;5047197;28;20051;-61
2023/07/09 07:59:36;;;;;;;5.88;4.00;;;;;;;41.37;22.83;94423.69;5050045;28;20152;-64
2023/07/09 08:02:05;;;;;;;5.07;3.70;;;;;;;42.06;21.76;94424.22;5018766;28;20815;-61
2023/07/09 08:04:32;;;;;;;5.43;3.75;;;;;;;41.24;22.09;94419.19;5049369;28;20059;-61
2023/07/09 08:06:59;;;;;;;6.73;3.90;;;;;;;39.90;22.97;94420.00;5049765;28;20089;-61
2023/07/09 08:09:25;;;;;;;5.60;3.72;;;;;;;40.15;22.82;94421.91;5050114;28;20103;-64
2023/07/09 08:11:52;;;;;;;5.43;3.40;;;;;;;40.17;22.81;94424.16;5049745;28;20055;-61
2023/07/09 08:14:19;;;;;;;7.57;3.97;;;;;;;39.50;23.64;94417.59;5015528;28;20122;-61
2023/07/09 08:16:47;;;;;;;7.38;4.05;;;;;;;39.47;23.50;94425.28;5040216;28;20043;-62
2023/07/09 08:19:18;;;;;;;6.37;4.73;;;;;;;39.91;23.08;94421.53;5042494;28;20041;-64
2023/07/09 08:21:45;;;;;;;7.25;3.90;;;;;;;39.90;23.80;94419.25;5049447;28;20036;-62
2023/07/09 08:24:14;;;;;;;5.93;3.65;;;;;;;39.62;23.47;94412.78;5049995;28;20047;-61
2023/07/09 08:26:41;;;;;;;4.88;3.70;;;;;;;40.27;22.74;94427.81;5049303;28;20406;-62
2023/07/09 08:29:07;;;;;;;5.07;3.97;;;;;;;39.55;23.71;94425.91;5049595;28;20059;-61
2023/07/09 08:31:34;;;;;;;5.87;3.87;;;;;;;40.56;22.43;94422.09;5049793;28;20467;-61
2023/07/09 08:34:01;;;;;;;6.68;3.70;;;;;;;41.78;22.43;94417.97;5049062;28;20041;-63
2023/07/09 08:36:28;;;;;;;5.93;3.60;;;;;;;43.17;20.13;94412.13;5049402;28;20098;-61
2023/07/09 08:38:56;;;;;;;5.80;3.70;;;;;;;42.77;20.44;94410.94;5048903;28;20102;-62
2023/07/09 08:41:59;;;;;;;6.78;3.80;;;;;;;39.00;24.14;94412.94;5045329;28;20041;-61
2023/07/09 08:44:35;;;;;;;5.40;3.70;;;;;;;41.06;22.66;94420.72;5028800;28;21484;-64
2023/07/09 08:47:01;;;;;;;5.45;3.60;;;;;;;42.40;20.58;94410.63;5046499;28;20048;-64
2023/07/09 08:49:41;;;;;;;5.05;3.75;;;;;;;42.42;20.57;94404.97;5049361;28;20045;-62
2023/07/09 08:52:20;;;;;;;5.28;3.40;;;;;;;43.76;19.38;94420.16;5048331;28;20037;-62
2023/07/09 08:54:49;;;;;;;5.78;3.60;;;;;;;42.16;20.85;94418.38;5048557;28;20397;-61
2023/07/09 08:57:27;;;;;;;6.97;3.90;;;;;;;41.84;20.91;94411.88;5049422;28;20409;-61
2023/07/09 09:00:09;;;;;;;8.10;3.40;;;;;;;41.17;21.31;94419.34;5048517;28;20044;-60
2023/07/09 09:02:43;;;;;;;5.53;3.42;;;;;;;41.26;21.31;94421.47;5036774;28;20048;-64
2023/07/09 09:05:17;;;;;;;4.78;3.55;;;;;;;42.85;19.77;94420.19;5029052;28;20071;-63
2023/07/09 09:07:45;;;;;;;5.45;3.60;;;;;;;41.51;20.63;94429.72;5048523;28;20080;-62
2023/07/09 09:10:21;;;;;;;6.00;3.70;;;;;;;42.39;19.96;94420.66;5031300;28;20045;-62
2023/07/09 09:12:59;;;;;;;6.10;3.70;;;;;;;41.31;20.83;94423.25;5027122;28;20079;-61
2023/07/09 09:15:26;;;;;;;5.20;3.60;;;;;;;38.31;24.10;94413.69;5045219;28;20032;-63
2023/07/09 09:17:57;;;;;;;5.90;3.42;;;;;;;40.82;22.43;94411.81;5048458;28;20059;-65
2023/07/09 09:20:26;;;;;;;5.60;3.63;;;;;;;40.65;21.48;94421.34;5048328;28;20067;-62
2023/07/09 09:22:56;;;;;;;5.83;3.53;;;;;;;41.21;20.68;94419.66;5026538;28;20041;-64
2023/07/09 09:25:31;;;;;;;5.03;3.40;;;;;;;42.47;19.31;94421.22;5043060;28;20087;-61
2023/07/09 09:28:02;;;;;;;6.25;3.72;;;;;;;43.30;18.84;94410.78;5048110;28;20501;-62
2023/07/09 09:30:30;;;;;;;6.75;3.10;;;;;;;44.41;17.82;94406.78;5048540;28;20051;-61
2023/07/09 09:33:00;;;;;;;5.93;4.15;;;;;;;43.49;18.55;94410.56;5048078;28;20053;-63
2023/07/09 09:35:47;;;;;;;5.60;3.70;;;;;;;43.28;18.85;94404.88;5048709;28;20037;-62
2023/07/09 09:38:21;;;;;;;6.10;3.35;;;;;;;44.37;17.52;94402.88;5047591;28;20532;-60
2023/07/09 09:40:48;;;;;;;5.53;3.30;;;;;;;40.45;20.36;94405.47;5048054;28;20048;-61
2023/07/09 09:43:19;;;;;;;4.82;3.30;;;;;;;38.56;22.96;94393.59;5048705;28;20037;-61
2023/07/09 09:45:49;;;;;;;4.68;3.22;;;;;;;40.79;21.19;94392.13;5048215;28;20052;-63
2023/07/09 09:48:29;;;;;;;5.73;3.20;;;;;;;41.25;19.86;94397.69;5048260;28;20197;-63
2023/07/09 09:51:00;;;;;;;7.20;3.47;;;;;;;37.35;23.64;94392.75;5048155;28;20049;-60
2023/07/09 09:53:34;;;;;;;5.78;3.20;;;;;;;40.47;20.22;94388.34;5048341;28;20040;-62
2023/07/09 09:56:05;;;;;;;8.45;3.50;;;;;;;43.57;18.72;94387.19;5047795;28;20495;-61
2023/07/09 09:58:31;;;;;;;5.47;3.20;;;;;;;39.80;21.20;94401.97;5048475;28;20452;-60
2023/07/09 10:01:00;;;;;;;5.53;3.67;;;;;;;36.87;24.03;94392.84;5047551;28;20385;-61
2023/07/09 10:03:36;;;;;;;5.35;3.30;;;;;;;37.21;23.59;94396.47;5048230;28;20052;-61
2023/07/09 10:06:32;;;;;;;5.68;3.42;;;;;;;35.30;25.74;94402.06;5029416;28;20513;-61
2023/07/09 10:09:23;;;;;;;5.65;3.30;;;;;;;37.72;22.80;94392.28;5047602;28;20049;-65
2023/07/09 10:12:16;;;;;;;5.50;3.03;;;;;;;37.98;22.28;94393.78;5048009;28;20044;-64
2023/07/09 10:14:54;;;;;;;5.27;3.40;;;;;;;37.83;22.07;94397.56;5047447;28;20067;-62
2023/07/09 10:17:47;;;;;;;5.13;3.35;;;;;;;37.97;21.71;94381.56;5048304;28;20041;-61
2023/07/09 10:20:20;;;;;;;4.28;3.03;;;;;;;36.50;23.92;94392.41;5036340;28;20401;-62
2023/07/09 10:22:57;;;;;;;4.90;3.03;;;;;;;40.91;19.87;94393.78;5047418;28;20037;-61
2023/07/09 10:25:40;;;;;;;6.68;3.25;;;;;;;41.01;20.42;94396.66;5050004;28;20049;-61
2023/07/09 10:28:16;;;;;;;6.30;3.50;;;;;;;39.74;21.65;94385.03;5032843;28;20712;-62
2023/07/09 10:30:56;;;;;;;5.35;3.40;;;;;;;40.16;21.55;94385.28;5051473;28;20053;-61
2023/07/09 10:33:34;;;;;;;5.15;3.30;;;;;;;39.97;21.83;94389.63;5051817;28;20052;-61
2023/07/09 10:36:18;;;;;;;4.65;3.40;;;;;;;39.58;21.22;94383.75;5051414;28;20045;-64
2023/07/09 10:38:59;;;;;;;4.65;3.35;;;;;;;37.85;23.36;94397.72;5032652;28;20098;-63
2023/07/09 10:41:26;;;;;;;5.13;3.40;;;;;;;37.53;23.79;94381.34;5039109;28;20037;-64
2023/07/09 10:44:12;;;;;;;6.10;3.70;;;;;;;37.04;23.95;94377.84;5051193;28;20053;-61
2023/07/09 10:46:42;;;;;;;5.57;3.80;;;;;;;36.92;24.57;94371.81;5029957;28;20092;-62
2023/07/09 10:49:13;;;;;;;5.68;3.40;;;;;;;35.02;26.06;94372.31;5045122;28;20043;-60
2023/07/09 10:52:04;;;;;;;6.22;3.70;;;;;;;35.76;25.63;94377.16;5051081;28;20102;-61
2023/07/09 10:55:04;;;;;;;6.27;3.67;;;;;;;37.24;23.70;94361.72;5051396;28;20067;-63
2023/07/09 10:57:40;;;;;;;5.97;3.70;;;;;;;37.50;23.56;94366.09;5050680;28;20406;-61
2023/07/09 11:00:15;;;;;;;5.75;3.70;;;;;;;37.14;24.11;94361.59;5050664;28;21697;-61
2023/07/09 11:02:42;;;;;;;6.00;3.67;;;;;;;36.67;24.55;94360.34;5050843;28;20401;-60
2023/07/09 11:05:09;;;;;;;5.95;3.70;;;;;;;36.60;24.60;94349.66;5050786;28;20394;-60
2023/07/09 11:08:03;;;;;;;6.37;3.60;;;;;;;36.31;24.58;94360.66;5033402;28;20045;-62
2023/07/09 11:10:41;;;;;;;5.57;3.38;;;;;;;33.85;27.04;94348.81;5048966;28;20074;-63
2023/07/09 11:13:16;;;;;;;7.13;4.00;;;;;;;33.51;27.33;94352.59;5050255;28;20049;-64
2023/07/09 11:15:47;;;;;;;6.75;3.55;;;;;;;33.31;26.91;94354.16;5050607;28;20068;-62
2023/07/09 11:18:26;;;;;;;8.10;3.83;;;;;;;33.67;27.60;94359.94;5050780;28;20049;-60
2023/07/09 11:21:01;;;;;;;7.93;3.50;;;;;;;34.48;26.77;94357.91;5050273;28;20505;-60
2023/07/09 11:23:39;;;;;;;8.27;3.45;;;;;;;35.06;24.20;94361.31;5050918;28;20115;-60
2023/07/09 11:26:32;;;;;;;8.18;3.92;;;;;;;34.40;26.26;94354.25;5050014;28;21006;-62
2023/07/09 11:29:02;;;;;;;7.57;3.75;;;;;;;33.24;27.15;94358.44;5037204;28;20033;-60
2023/07/09 11:31:44;;;;;;;6.85;3.88;;;;;;;33.75;26.57;94348.59;5050632;28;20051;-60
2023/07/09 11:34:13;;;;;;;7.13;3.90;;;;;;;33.18;27.53;94349.28;5050009;28;20688;-60
2023/07/09 11:36:47;;;;;;;6.57;3.60;;;;;;;33.77;27.87;94345.97;5032035;28;20144;-64
2023/07/09 11:39:30;;;;;;;6.90;3.90;;;;;;;31.84;28.36;94348.88;5035628;28;20555;-61